Terminal Aerodrome Forecast
Issued by NWS Chicago, IL

Home | Current Version | Previous Version | Graphics & Text | Print | Product List | Glossary On
Versions: 1 2 3 4 5 6 7 8 9 10 11 12 13 14 15 16 17 18 19 20 21 22 23 24
000
FTUS43 KLOT 240914 AAA
TAFRFD
TAF AMD
KRFD 240914Z 2409/2506 02003KT 2SM BR OVC005
     FM241200 03007KT 3SM -SHRA BR SCT003 OVC006
     FM241500 03009KT 5SM BR VCSH SCT008 BKN015
     FM241800 03011G18KT P6SM SCT009 BKN020 BKN050
     FM250100 36009KT P6SM SCT007 SCT015 BKN030=

USA.gov is the U.S. government's official web portal to all federal, state and local government web resources and services.